createdAt,value
2022-10-02T00:01:28.366Z,0
2022-10-02T00:06:32.495Z,0
2022-10-02T00:11:36.641Z,0
2022-10-02T00:16:39.422Z,0
2022-10-02T00:21:43.027Z,0
2022-10-02T00:26:47.227Z,0
2022-10-02T00:31:51.442Z,0
2022-10-02T00:36:55.547Z,0
2022-10-02T00:41:59.688Z,0
2022-10-02T00:47:03.868Z,0
2022-10-02T00:52:08.018Z,0
2022-10-02T00:57:12.198Z,0
2022-10-02T01:02:16.408Z,0
2022-10-02T01:07:20.500Z,0
2022-10-02T01:12:24.654Z,0
2022-10-02T01:17:28.820Z,0
2022-10-02T01:22:33.007Z,0
2022-10-02T01:27:39.225Z,0
2022-10-02T01:32:41.283Z,0
2022-10-02T01:37:45.463Z,0
2022-10-02T01:42:49.633Z,0
2022-10-02T01:47:53.795Z,0
2022-10-02T01:52:57.931Z,0
2022-10-02T01:58:02.117Z,0
2022-10-02T02:03:04.377Z,0
2022-10-02T02:08:08.542Z,0
2022-10-02T02:13:12.701Z,0
2022-10-02T02:18:16.839Z,0
2022-10-02T02:23:21.000Z,0
2022-10-02T02:28:25.200Z,0
2022-10-02T02:33:29.346Z,0
2022-10-02T02:38:33.483Z,0
2022-10-02T02:43:37.662Z,0
2022-10-02T02:48:41.827Z,0
2022-10-02T02:53:45.955Z,0
2022-10-02T02:58:50.121Z,0
2022-10-02T03:03:54.283Z,0
2022-10-02T03:08:58.440Z,0
2022-10-02T03:14:02.640Z,0
2022-10-02T03:19:06.773Z,0
2022-10-02T03:24:10.934Z,0
2022-10-02T03:34:19.243Z,0
2022-10-02T03:39:25.733Z,0
2022-10-02T03:44:27.569Z,0
2022-10-02T03:49:31.786Z,0
2022-10-02T03:54:34.024Z,0
2022-10-02T03:59:38.223Z,0
2022-10-02T04:04:40.411Z,0
2022-10-02T04:09:44.606Z,0
2022-10-02T04:14:48.784Z,0
2022-10-02T04:19:52.909Z,0
2022-10-02T04:24:57.068Z,0
2022-10-02T04:30:01.218Z,0
2022-10-02T04:35:05.404Z,0
2022-10-02T04:40:09.634Z,0
2022-10-02T04:45:13.732Z,0
2022-10-02T04:50:17.897Z,0
2022-10-02T04:55:22.090Z,0
2022-10-02T05:00:26.210Z,0
2022-10-02T05:05:30.370Z,0
2022-10-02T05:10:34.631Z,1
2022-10-02T05:15:38.664Z,5
2022-10-02T05:20:42.865Z,10
2022-10-02T05:25:46.999Z,26
2022-10-02T05:30:51.165Z,46
2022-10-02T05:35:55.304Z,88
2022-10-02T05:40:59.501Z,156
2022-10-02T05:46:03.663Z,160
2022-10-02T05:51:05.918Z,190
2022-10-02T05:56:10.085Z,311
2022-10-02T06:01:14.327Z,412
2022-10-02T06:06:18.408Z,454
2022-10-02T06:11:22.539Z,580
2022-10-02T06:16:26.752Z,876
2022-10-02T06:21:30.882Z,830
2022-10-02T06:26:37.343Z,982
2022-10-02T06:31:39.325Z,1320
2022-10-02T06:36:43.365Z,1524
2022-10-02T06:41:47.521Z,1517
2022-10-02T06:46:51.690Z,1900
2022-10-02T06:51:55.921Z,2502
2022-10-02T06:57:00.008Z,2672
2022-10-02T07:02:04.169Z,2138
2022-10-02T07:07:08.336Z,1269
2022-10-02T07:12:12.462Z,2475
2022-10-02T07:17:19.298Z,3221
2022-10-02T07:22:43.481Z,2685
2022-10-02T07:27:24.932Z,3188
2022-10-02T07:32:29.115Z,4567
2022-10-02T07:37:31.404Z,4681
2022-10-02T07:42:35.535Z,4243
2022-10-02T07:47:37.850Z,3514
2022-10-02T07:52:41.994Z,4985
2022-10-02T07:57:44.256Z,4132
2022-10-02T08:02:48.526Z,4386
2022-10-02T08:07:52.551Z,4581
2022-10-02T08:18:16.568Z,2107
2022-10-02T08:23:05.076Z,2330
2022-10-02T08:28:09.270Z,1734
2022-10-02T08:33:13.409Z,2804
2022-10-02T08:38:17.553Z,4544
2022-10-02T08:43:21.708Z,6589
2022-10-02T08:48:25.876Z,8530
2022-10-02T08:53:30.004Z,7510
2022-10-02T08:58:34.183Z,5296
2022-10-02T09:03:38.327Z,7657
2022-10-02T09:08:40.611Z,7805
2022-10-02T09:13:44.761Z,8049
2022-10-02T09:18:48.916Z,8253
2022-10-02T09:23:53.103Z,7086
2022-10-02T09:28:57.249Z,7124
2022-10-02T09:34:01.417Z,4514
2022-10-02T09:39:05.563Z,1908
2022-10-02T09:44:11.861Z,2205
2022-10-02T09:49:11.994Z,5021
2022-10-02T09:54:16.199Z,6330
2022-10-02T09:59:20.355Z,5645
2022-10-02T10:04:24.541Z,3780
2022-10-02T10:14:32.805Z,3355
2022-10-02T10:19:36.975Z,2782
2022-10-02T10:24:41.123Z,6068
2022-10-02T10:29:45.413Z,9270
2022-10-02T10:34:49.458Z,8403
2022-10-02T10:39:53.599Z,6935
2022-10-02T10:44:57.769Z,6779
2022-10-02T10:50:01.937Z,6613
2022-10-02T10:55:06.072Z,6993
2022-10-02T11:00:10.263Z,6269
2022-10-02T11:05:14.390Z,5773
2022-10-02T11:10:18.575Z,6761
2022-10-02T11:15:22.746Z,4183
2022-10-02T11:20:26.861Z,7365
2022-10-02T11:25:52.351Z,3724
2022-10-02T11:30:39.445Z,3701
2022-10-02T11:35:39.348Z,4245
2022-10-02T11:40:41.623Z,3734
2022-10-02T11:45:45.923Z,5460
2022-10-02T11:50:48.055Z,3908
2022-10-02T11:55:52.223Z,5046
2022-10-02T12:00:56.371Z,8350
2022-10-02T12:06:00.675Z,9657
2022-10-02T12:11:04.902Z,9425
2022-10-02T12:16:08.936Z,8258
2022-10-02T12:21:13.001Z,8950
2022-10-02T12:26:17.191Z,10247
2022-10-02T12:31:21.410Z,8640
2022-10-02T12:36:25.493Z,5475
2022-10-02T12:41:29.641Z,4218
2022-10-02T12:46:33.800Z,5719
2022-10-02T12:51:38.415Z,6037
2022-10-02T12:56:42.145Z,5060
2022-10-02T13:01:46.466Z,2850
2022-10-02T13:06:50.497Z,7439
2022-10-02T13:11:56.022Z,8368
2022-10-02T13:16:58.843Z,8892
2022-10-02T13:22:02.946Z,6728
2022-10-02T13:27:07.090Z,5060
2022-10-02T13:32:11.238Z,3575
2022-10-02T13:37:13.507Z,5478
2022-10-02T13:42:17.681Z,4361
2022-10-02T13:47:21.870Z,4219
2022-10-02T13:52:25.983Z,4402
2022-10-02T13:57:30.152Z,3501
2022-10-02T14:02:34.297Z,3487
2022-10-02T14:07:38.474Z,3374
2022-10-02T14:12:42.651Z,4070
2022-10-02T14:17:46.795Z,4235
2022-10-02T14:22:50.993Z,3855
2022-10-02T14:27:55.196Z,5858
2022-10-02T14:32:59.302Z,7985
2022-10-02T14:38:03.434Z,6503
2022-10-02T14:43:07.575Z,5726
2022-10-02T14:48:11.791Z,4215
2022-10-02T14:53:15.926Z,3789
2022-10-02T14:58:20.084Z,2564
2022-10-02T15:03:24.259Z,3156
2022-10-02T15:08:28.406Z,2498
2022-10-02T15:13:32.544Z,3059
2022-10-02T15:18:38.416Z,3491
2022-10-02T15:23:39.002Z,3253
2022-10-02T15:28:43.332Z,2945
2022-10-02T15:33:45.425Z,2298
2022-10-02T15:38:49.548Z,4120
2022-10-02T15:43:51.861Z,3698
2022-10-02T15:48:56.009Z,5536
2022-10-02T15:53:58.267Z,5418
2022-10-02T15:59:02.509Z,3905
2022-10-02T16:04:06.588Z,4505
2022-10-02T16:09:10.789Z,2519
2022-10-02T16:14:14.940Z,2258
2022-10-02T16:19:19.068Z,2188
2022-10-02T16:24:23.210Z,1691
2022-10-02T16:29:27.388Z,1224
2022-10-02T16:34:31.553Z,998
2022-10-02T16:39:35.720Z,811
2022-10-02T16:44:39.899Z,650
2022-10-02T16:49:44.051Z,421
2022-10-02T16:54:48.211Z,420
2022-10-02T16:59:52.351Z,390
2022-10-02T17:04:56.512Z,246
2022-10-02T17:10:00.658Z,166
2022-10-02T17:15:04.878Z,110
2022-10-02T17:20:08.978Z,57
2022-10-02T17:25:13.121Z,25
2022-10-02T17:30:17.316Z,12
2022-10-02T17:35:21.584Z,5
2022-10-02T17:40:23.736Z,1
2022-10-02T17:45:27.944Z,0
2022-10-02T17:50:32.130Z,0
2022-10-02T17:55:36.243Z,0
2022-10-02T18:00:38.547Z,0
2022-10-02T18:05:42.659Z,0
2022-10-02T18:10:46.834Z,0
2022-10-02T18:15:50.964Z,0
2022-10-02T18:20:55.106Z,0
2022-10-02T18:25:59.290Z,0
2022-10-02T18:31:03.470Z,0
2022-10-02T18:36:07.618Z,0
2022-10-02T18:41:11.762Z,0
2022-10-02T18:46:16.010Z,0
2022-10-02T18:51:20.107Z,0
2022-10-02T18:56:24.248Z,0
2022-10-02T19:01:28.468Z,0
2022-10-02T19:06:32.688Z,0
2022-10-02T19:11:36.917Z,0
2022-10-02T19:16:40.982Z,0
2022-10-02T19:21:45.093Z,0
2022-10-02T19:26:49.215Z,0
2022-10-02T19:31:53.486Z,0
2022-10-02T19:36:57.546Z,0
2022-10-02T19:42:01.707Z,0
2022-10-02T19:47:03.985Z,0
2022-10-02T19:52:08.150Z,0
2022-10-02T19:57:12.320Z,0
2022-10-02T20:02:14.641Z,0
2022-10-02T20:07:18.829Z,0
2022-10-02T20:12:22.933Z,0
2022-10-02T20:17:27.040Z,0
2022-10-02T20:22:31.211Z,0
2022-10-02T20:27:35.356Z,0
2022-10-02T20:32:39.563Z,0
2022-10-02T20:37:47.746Z,0
2022-10-02T20:42:47.878Z,0
2022-10-02T20:47:52.044Z,0
2022-10-02T20:52:56.206Z,0
2022-10-02T20:58:01.388Z,0
2022-10-02T21:03:04.513Z,0
2022-10-02T21:08:08.704Z,0
2022-10-02T21:13:12.904Z,0
2022-10-02T21:18:16.995Z,0
2022-10-02T21:23:21.155Z,0
2022-10-02T21:28:25.357Z,0
2022-10-02T21:33:29.497Z,0
2022-10-02T21:38:33.659Z,0
2022-10-02T21:43:37.807Z,0
2022-10-02T21:48:40.093Z,0
2022-10-02T21:53:44.230Z,0
2022-10-02T21:58:48.430Z,0
2022-10-02T22:03:50.759Z,0
2022-10-02T22:08:54.842Z,0
2022-10-02T22:13:59.013Z,0
2022-10-02T22:19:03.139Z,0
2022-10-02T22:24:07.340Z,0
2022-10-02T22:29:11.517Z,0
2022-10-02T22:34:17.260Z,0
2022-10-02T22:39:19.780Z,0
2022-10-02T22:44:23.982Z,0
2022-10-02T22:49:28.128Z,0
2022-10-02T22:54:32.346Z,0
2022-10-02T22:59:36.475Z,0
2022-10-02T23:04:40.621Z,0
2022-10-02T23:09:44.818Z,0
2022-10-02T23:14:48.963Z,0
2022-10-02T23:19:53.101Z,0
2022-10-02T23:24:57.286Z,0
2022-10-02T23:30:01.409Z,0
2022-10-02T23:35:05.609Z,0
2022-10-02T23:40:09.764Z,0
2022-10-02T23:45:13.908Z,0
2022-10-02T23:50:16.179Z,0
2022-10-02T23:55:20.405Z,0
